Tom Price Western Australia
Tom Price Western Australia
Language:  English
Updated18/01/2018 11:40am 
 

METAR Reports

YPPD - Port Hedland Arr, Australia
Distance from station: NNE 256km
Updated: Thu, 18-Jan-2018 11:30am AWST
Partly cloudy
Partly cloudy
 Wind from NNW
Wind: NNW 22 km/h
Temperature: 35°C
Heat Index: 45°C
Dew Point: 26°C
Humidity: 60%
Barometer: 1005 hPa
Clouds: Partly cloudy
Visibility: 10 km
Cloud details: Partly cloudy 1006 m
2018/01/18 03:30 YPPD 180330Z AUTO 34012KT 9999 // SCT033 35/26 Q1005
YPLM - Learmouth, Australia
Distance from station: W 351km
Updated: Thu, 18-Jan-2018 11:30am AWST
Clear
Clear
 Wind from NE
Wind: NE 15 km/h
Temperature: 34°C
Dew Point: 18°C
Humidity: 39%
Barometer: 1006 hPa
Clouds: Clear
Visibility: 10 km
2018/01/18 03:30 YPLM 180330Z AUTO 04008KT 9999 // NCD 34/18 Q1006
YTEF - Telfer Airport, Australia
Distance from station: E 497km
Updated: Thu, 18-Jan-2018 11:00am AWST
Clear
Clear
 Wind from SW
Wind: SW 7 km/h
Temperature: 37°C
Dew Point: 18°C
Humidity: 33%
Barometer: 1006 hPa
Clouds: Clear
Visibility: 10 km
2018/01/18 03:00 YTEF 180300Z AUTO 22004KT 170V270 9999 // NCD 37/18 Q1006
 
YBRM - Broome Airport, Australia
Distance from station: NE 702km
Updated: Thu, 18-Jan-2018 11:30am AWST
Mostly cloudy
Mostly cloudy
 Wind from W
Wind: W 15 km/h
Temperature: 31°C
Heat Index: 38°C
Dew Point: 25°C
Humidity: 70%
Barometer: 1006 hPa
Clouds: Mostly cloudy
Visibility: 10 km
Cloud details: Mostly cloudy 792 m
2018/01/18 03:30 YBRM 180330Z AUTO 26008KT 9999 // BKN026 31/25 Q1006 RF00.0/000.0
YGEL - Geraldton, Australia
Distance from station: SSW 763km
Updated: Thu, 18-Jan-2018 11:30am AWST
Overcast
Overcast
 Wind from S
Wind: S 31 km/h
Temperature: 25°C
Dew Point: 18°C
Humidity: 65%
Barometer: 1011 hPa
Clouds: Overcast
Visibility: 10 km
Cloud details: Partly cloudy 640 m
Partly cloudy 823 m
Overcast 1006 m
2018/01/18 03:30 YGEL 180330Z AUTO 18017KT 9999 // SCT021 SCT027 OVC033 25/18 Q1011
YCIN - Curtin/Derby, Australia
Distance from station: NE 854km
Updated: Thu, 18-Jan-2018 11:30am AWST
Clear
Clear
 Wind from W
Wind: W 7 km/h
Temperature: 34°C
Heat Index: 39°C
Dew Point: 23°C
Humidity: 53%
Barometer: 1005 hPa
Clouds: Clear
Visibility: 10 km
2018/01/18 03:30 YCIN 180330Z AUTO 26004KT 240V300 9999 // NCD 34/23 Q1005 RF00.0/000.0